sensor_id;sensor_type;location;lat;lon;timestamp;P1;durP1;ratioP1;P2;durP2;ratioP2
52982;SDS011;48698;45.736;13.926;2023-09-19T00:08:03;9.52;;;5.05;;
52982;SDS011;48698;45.736;13.926;2023-09-19T00:18:13;18.02;;;4.65;;
52982;SDS011;48698;45.736;13.926;2023-09-19T00:23:20;14.10;;;4.82;;
52982;SDS011;48698;45.736;13.926;2023-09-19T00:28:23;23.83;;;5.18;;
52982;SDS011;48698;45.736;13.926;2023-09-19T00:38:32;14.85;;;4.97;;
52982;SDS011;48698;45.736;13.926;2023-09-19T00:43:36;14.98;;;5.85;;
52982;SDS011;48698;45.736;13.926;2023-09-19T00:48:40;15.30;;;4.80;;
52982;SDS011;48698;45.736;13.926;2023-09-19T00:53:46;14.07;;;4.50;;
52982;SDS011;48698;45.736;13.926;2023-09-19T00:58:50;11.25;;;4.45;;
52982;SDS011;48698;45.736;13.926;2023-09-19T01:03:54;29.52;;;5.35;;
52982;SDS011;48698;45.736;13.926;2023-09-19T01:08:57;18.15;;;4.32;;
52982;SDS011;48698;45.736;13.926;2023-09-19T01:30:32;23.42;;;5.78;;
52982;SDS011;48698;45.736;13.926;2023-09-19T01:35:45;29.23;;;5.75;;
52982;SDS011;48698;45.736;13.926;2023-09-19T01:40:51;16.42;;;4.75;;
52982;SDS011;48698;45.736;13.926;2023-09-19T01:56:32;13.73;;;4.78;;
52982;SDS011;48698;45.736;13.926;2023-09-19T02:01:40;19.25;;;5.40;;
52982;SDS011;48698;45.736;13.926;2023-09-19T02:06:48;15.32;;;4.85;;
52982;SDS011;48698;45.736;13.926;2023-09-19T02:11:51;19.67;;;5.35;;
52982;SDS011;48698;45.736;13.926;2023-09-19T02:16:55;16.65;;;5.78;;
52982;SDS011;48698;45.736;13.926;2023-09-19T02:22:00;16.55;;;4.63;;
52982;SDS011;48698;45.736;13.926;2023-09-19T02:27:06;18.95;;;5.45;;
52982;SDS011;48698;45.736;13.926;2023-09-19T02:32:10;19.50;;;5.20;;
52982;SDS011;48698;45.736;13.926;2023-09-19T02:37:14;15.52;;;5.30;;
52982;SDS011;48698;45.736;13.926;2023-09-19T02:42:19;21.15;;;6.38;;
52982;SDS011;48698;45.736;13.926;2023-09-19T02:47:22;19.70;;;5.97;;
52982;SDS011;48698;45.736;13.926;2023-09-19T02:52:26;23.35;;;6.85;;
52982;SDS011;48698;45.736;13.926;2023-09-19T02:57:29;22.05;;;6.50;;
52982;SDS011;48698;45.736;13.926;2023-09-19T03:02:36;15.07;;;4.80;;
52982;SDS011;48698;45.736;13.926;2023-09-19T03:07:41;14.35;;;5.60;;
52982;SDS011;48698;45.736;13.926;2023-09-19T03:12:46;12.43;;;5.63;;
52982;SDS011;48698;45.736;13.926;2023-09-19T03:17:50;19.52;;;5.90;;
52982;SDS011;48698;45.736;13.926;2023-09-19T03:22:56;20.42;;;6.03;;
52982;SDS011;48698;45.736;13.926;2023-09-19T03:33:04;18.37;;;5.80;;
52982;SDS011;48698;45.736;13.926;2023-09-19T03:38:07;13.88;;;6.03;;
52982;SDS011;48698;45.736;13.926;2023-09-19T03:43:11;15.75;;;5.72;;
52982;SDS011;48698;45.736;13.926;2023-09-19T03:48:14;13.15;;;5.32;;
52982;SDS011;48698;45.736;13.926;2023-09-19T03:53:18;13.45;;;5.60;;
52982;SDS011;48698;45.736;13.926;2023-09-19T03:58:21;17.60;;;6.47;;
52982;SDS011;48698;45.736;13.926;2023-09-19T04:03:24;16.40;;;6.03;;
52982;SDS011;48698;45.736;13.926;2023-09-19T04:08:38;22.00;;;6.33;;
52982;SDS011;48698;45.736;13.926;2023-09-19T04:13:42;17.92;;;6.18;;
52982;SDS011;48698;45.736;13.926;2023-09-19T04:18:46;16.95;;;6.45;;
52982;SDS011;48698;45.736;13.926;2023-09-19T04:23:49;21.65;;;6.57;;
52982;SDS011;48698;45.736;13.926;2023-09-19T04:28:52;14.30;;;6.75;;
52982;SDS011;48698;45.736;13.926;2023-09-19T04:33:56;26.73;;;7.28;;
52982;SDS011;48698;45.736;13.926;2023-09-19T04:38:59;18.10;;;5.68;;
52982;SDS011;48698;45.736;13.926;2023-09-19T04:44:04;23.00;;;6.72;;
52982;SDS011;48698;45.736;13.926;2023-09-19T04:54:11;14.32;;;6.50;;
52982;SDS011;48698;45.736;13.926;2023-09-19T04:59:16;18.25;;;6.35;;
52982;SDS011;48698;45.736;13.926;2023-09-19T05:04:19;14.75;;;6.68;;
52982;SDS011;48698;45.736;13.926;2023-09-19T05:09:23;17.48;;;6.47;;
52982;SDS011;48698;45.736;13.926;2023-09-19T05:14:26;14.23;;;6.32;;
52982;SDS011;48698;45.736;13.926;2023-09-19T05:19:30;21.27;;;7.10;;
52982;SDS011;48698;45.736;13.926;2023-09-19T05:24:33;15.60;;;6.68;;
52982;SDS011;48698;45.736;13.926;2023-09-19T05:29:36;14.23;;;7.20;;
52982;SDS011;48698;45.736;13.926;2023-09-19T05:39:44;15.05;;;6.32;;
52982;SDS011;48698;45.736;13.926;2023-09-19T05:44:47;13.93;;;6.00;;
52982;SDS011;48698;45.736;13.926;2023-09-19T05:49:51;17.80;;;7.80;;
52982;SDS011;48698;45.736;13.926;2023-09-19T05:54:55;19.00;;;6.60;;
52982;SDS011;48698;45.736;13.926;2023-09-19T05:59:59;15.32;;;6.60;;
52982;SDS011;48698;45.736;13.926;2023-09-19T06:05:04;12.93;;;6.53;;
52982;SDS011;48698;45.736;13.926;2023-09-19T06:10:09;13.73;;;6.18;;
52982;SDS011;48698;45.736;13.926;2023-09-19T06:15:13;15.38;;;6.55;;
52982;SDS011;48698;45.736;13.926;2023-09-19T06:20:26;17.95;;;5.78;;
52982;SDS011;48698;45.736;13.926;2023-09-19T06:25:30;19.95;;;5.38;;
52982;SDS011;48698;45.736;13.926;2023-09-19T06:30:34;17.63;;;5.35;;
52982;SDS011;48698;45.736;13.926;2023-09-19T06:35:39;19.13;;;5.32;;
52982;SDS011;48698;45.736;13.926;2023-09-19T06:45:46;20.92;;;5.82;;
52982;SDS011;48698;45.736;13.926;2023-09-19T06:50:50;12.45;;;4.68;;
52982;SDS011;48698;45.736;13.926;2023-09-19T06:55:54;15.45;;;4.50;;
52982;SDS011;48698;45.736;13.926;2023-09-19T07:00:58;15.23;;;4.35;;
52982;SDS011;48698;45.736;13.926;2023-09-19T07:06:02;15.88;;;4.40;;
52982;SDS011;48698;45.736;13.926;2023-09-19T07:11:07;15.25;;;4.70;;
52982;SDS011;48698;45.736;13.926;2023-09-19T07:16:11;12.55;;;4.13;;
52982;SDS011;48698;45.736;13.926;2023-09-19T07:21:30;18.33;;;4.20;;
52982;SDS011;48698;45.736;13.926;2023-09-19T07:26:36;12.27;;;3.70;;
52982;SDS011;48698;45.736;13.926;2023-09-19T07:36:43;15.10;;;4.50;;
52982;SDS011;48698;45.736;13.926;2023-09-19T07:41:47;18.25;;;3.58;;
52982;SDS011;48698;45.736;13.926;2023-09-19T07:46:52;9.75;;;2.88;;
52982;SDS011;48698;45.736;13.926;2023-09-19T07:51:56;14.20;;;3.92;;
52982;SDS011;48698;45.736;13.926;2023-09-19T07:57:02;17.55;;;3.25;;
52982;SDS011;48698;45.736;13.926;2023-09-19T08:02:05;12.98;;;3.55;;
52982;SDS011;48698;45.736;13.926;2023-09-19T08:07:12;13.43;;;3.53;;
52982;SDS011;48698;45.736;13.926;2023-09-19T08:12:18;12.85;;;3.58;;
52982;SDS011;48698;45.736;13.926;2023-09-19T08:17:27;12.25;;;3.85;;
52982;SDS011;48698;45.736;13.926;2023-09-19T08:27:38;6.03;;;1.77;;
52982;SDS011;48698;45.736;13.926;2023-09-19T08:32:42;5.20;;;1.65;;
52982;SDS011;48698;45.736;13.926;2023-09-19T08:37:49;7.53;;;1.67;;
52982;SDS011;48698;45.736;13.926;2023-09-19T08:42:53;3.45;;;1.40;;
52982;SDS011;48698;45.736;13.926;2023-09-19T08:53:10;4.67;;;1.60;;
52982;SDS011;48698;45.736;13.926;2023-09-19T08:58:18;3.40;;;1.20;;
52982;SDS011;48698;45.736;13.926;2023-09-19T09:03:29;3.33;;;1.67;;
52982;SDS011;48698;45.736;13.926;2023-09-19T09:08:36;5.15;;;1.35;;
52982;SDS011;48698;45.736;13.926;2023-09-19T09:13:42;4.57;;;1.55;;
52982;SDS011;48698;45.736;13.926;2023-09-19T09:18:46;10.70;;;1.85;;
52982;SDS011;48698;45.736;13.926;2023-09-19T09:23:55;2.00;;;1.10;;
52982;SDS011;48698;45.736;13.926;2023-09-19T09:28:58;5.73;;;1.87;;
52982;SDS011;48698;45.736;13.926;2023-09-19T09:34:01;3.38;;;1.30;;
52982;SDS011;48698;45.736;13.926;2023-09-19T09:39:06;3.10;;;1.80;;
52982;SDS011;48698;45.736;13.926;2023-09-19T09:44:21;2.75;;;0.93;;
52982;SDS011;48698;45.736;13.926;2023-09-19T09:49:26;2.90;;;1.08;;
52982;SDS011;48698;45.736;13.926;2023-09-19T09:54:39;5.72;;;2.17;;
52982;SDS011;48698;45.736;13.926;2023-09-19T10:00:02;10.02;;;1.13;;
52982;SDS011;48698;45.736;13.926;2023-09-19T10:05:15;4.35;;;1.23;;
52982;SDS011;48698;45.736;13.926;2023-09-19T10:10:35;2.10;;;1.10;;
52982;SDS011;48698;45.736;13.926;2023-09-19T10:15:56;2.58;;;1.13;;
52982;SDS011;48698;45.736;13.926;2023-09-19T10:21:03;2.63;;;1.02;;
52982;SDS011;48698;45.736;13.926;2023-09-19T10:26:07;1.80;;;1.20;;
52982;SDS011;48698;45.736;13.926;2023-09-19T10:31:12;2.42;;;1.05;;
52982;SDS011;48698;45.736;13.926;2023-09-19T10:50:20;8.30;;;1.48;;
52982;SDS011;48698;45.736;13.926;2023-09-19T10:55:28;1.63;;;1.10;;
52982;SDS011;48698;45.736;13.926;2023-09-19T11:00:46;1.25;;;1.00;;
52982;SDS011;48698;45.736;13.926;2023-09-19T11:11:38;2.63;;;0.80;;
52982;SDS011;48698;45.736;13.926;2023-09-19T11:22:11;1.77;;;0.60;;
52982;SDS011;48698;45.736;13.926;2023-09-19T11:27:14;3.50;;;0.80;;
52982;SDS011;48698;45.736;13.926;2023-09-19T11:32:30;1.23;;;0.90;;
52982;SDS011;48698;45.736;13.926;2023-09-19T11:38:02;1.42;;;0.77;;
52982;SDS011;48698;45.736;13.926;2023-09-19T11:43:27;1.10;;;0.75;;
52982;SDS011;48698;45.736;13.926;2023-09-19T11:48:33;1.90;;;0.55;;
52982;SDS011;48698;45.736;13.926;2023-09-19T11:53:38;1.05;;;0.88;;
52982;SDS011;48698;45.736;13.926;2023-09-19T11:58:46;2.85;;;0.90;;
52982;SDS011;48698;45.736;13.926;2023-09-19T12:03:52;1.65;;;0.70;;
52982;SDS011;48698;45.736;13.926;2023-09-19T12:08:57;1.60;;;0.95;;
52982;SDS011;48698;45.736;13.926;2023-09-19T12:14:02;1.23;;;0.73;;
52982;SDS011;48698;45.736;13.926;2023-09-19T12:19:19;0.77;;;0.75;;
52982;SDS011;48698;45.736;13.926;2023-09-19T12:24:27;1.42;;;0.80;;
52982;SDS011;48698;45.736;13.926;2023-09-19T12:29:41;1.10;;;0.70;;
52982;SDS011;48698;45.736;13.926;2023-09-19T12:34:51;4.78;;;1.00;;
52982;SDS011;48698;45.736;13.926;2023-09-19T12:40:06;0.90;;;0.73;;
52982;SDS011;48698;45.736;13.926;2023-09-19T12:45:24;3.38;;;0.98;;
52982;SDS011;48698;45.736;13.926;2023-09-19T12:55:31;1.67;;;0.98;;
52982;SDS011;48698;45.736;13.926;2023-09-19T13:00:43;1.00;;;0.85;;
52982;SDS011;48698;45.736;13.926;2023-09-19T13:05:49;2.50;;;1.10;;
52982;SDS011;48698;45.736;13.926;2023-09-19T13:11:02;1.48;;;1.10;;
52982;SDS011;48698;45.736;13.926;2023-09-19T13:16:12;1.65;;;0.80;;
52982;SDS011;48698;45.736;13.926;2023-09-19T13:21:20;0.70;;;0.70;;
52982;SDS011;48698;45.736;13.926;2023-09-19T13:26:30;1.23;;;0.70;;
52982;SDS011;48698;45.736;13.926;2023-09-19T13:31:32;1.93;;;1.03;;
52982;SDS011;48698;45.736;13.926;2023-09-19T13:36:36;2.20;;;1.00;;
52982;SDS011;48698;45.736;13.926;2023-09-19T13:41:40;1.48;;;0.90;;
52982;SDS011;48698;45.736;13.926;2023-09-19T13:46:43;4.00;;;0.90;;
52982;SDS011;48698;45.736;13.926;2023-09-19T13:51:49;1.90;;;1.00;;
52982;SDS011;48698;45.736;13.926;2023-09-19T13:56:52;1.23;;;0.63;;
52982;SDS011;48698;45.736;13.926;2023-09-19T14:01:54;1.40;;;0.90;;
52982;SDS011;48698;45.736;13.926;2023-09-19T14:06:57;3.67;;;0.82;;
52982;SDS011;48698;45.736;13.926;2023-09-19T14:12:00;1.30;;;1.20;;
52982;SDS011;48698;45.736;13.926;2023-09-19T14:17:04;2.35;;;1.13;;
52982;SDS011;48698;45.736;13.926;2023-09-19T14:22:07;1.00;;;0.90;;
52982;SDS011;48698;45.736;13.926;2023-09-19T14:27:10;1.50;;;1.00;;
52982;SDS011;48698;45.736;13.926;2023-09-19T14:32:13;1.42;;;0.90;;
52982;SDS011;48698;45.736;13.926;2023-09-19T14:37:17;2.85;;;1.20;;
52982;SDS011;48698;45.736;13.926;2023-09-19T14:42:19;1.80;;;1.10;;
52982;SDS011;48698;45.736;13.926;2023-09-19T14:52:26;1.25;;;1.15;;
52982;SDS011;48698;45.736;13.926;2023-09-19T14:57:30;2.20;;;1.05;;
52982;SDS011;48698;45.736;13.926;2023-09-19T15:02:33;4.18;;;1.13;;
52982;SDS011;48698;45.736;13.926;2023-09-19T15:07:37;5.35;;;1.08;;
52982;SDS011;48698;45.736;13.926;2023-09-19T15:12:40;2.50;;;1.20;;
52982;SDS011;48698;45.736;13.926;2023-09-19T15:17:43;2.63;;;1.17;;
52982;SDS011;48698;45.736;13.926;2023-09-19T15:22:46;3.20;;;1.05;;
52982;SDS011;48698;45.736;13.926;2023-09-19T15:27:48;1.50;;;0.93;;
52982;SDS011;48698;45.736;13.926;2023-09-19T15:32:52;1.40;;;1.00;;
52982;SDS011;48698;45.736;13.926;2023-09-19T15:37:55;1.93;;;1.13;;
52982;SDS011;48698;45.736;13.926;2023-09-19T15:53:05;3.13;;;1.90;;
52982;SDS011;48698;45.736;13.926;2023-09-19T15:58:08;1.93;;;1.20;;
52982;SDS011;48698;45.736;13.926;2023-09-19T16:03:11;2.40;;;1.30;;
52982;SDS011;48698;45.736;13.926;2023-09-19T16:08:13;1.70;;;1.10;;
52982;SDS011;48698;45.736;13.926;2023-09-19T16:13:16;3.22;;;1.25;;
52982;SDS011;48698;45.736;13.926;2023-09-19T16:18:19;2.30;;;1.23;;
52982;SDS011;48698;45.736;13.926;2023-09-19T16:23:22;2.03;;;1.27;;
52982;SDS011;48698;45.736;13.926;2023-09-19T16:28:25;1.38;;;1.08;;
52982;SDS011;48698;45.736;13.926;2023-09-19T16:33:28;2.33;;;1.20;;
52982;SDS011;48698;45.736;13.926;2023-09-19T16:43:34;3.75;;;1.70;;
52982;SDS011;48698;45.736;13.926;2023-09-19T16:48:40;2.47;;;1.33;;
52982;SDS011;48698;45.736;13.926;2023-09-19T16:54:04;3.05;;;1.00;;
52982;SDS011;48698;45.736;13.926;2023-09-19T16:59:06;2.97;;;1.17;;
52982;SDS011;48698;45.736;13.926;2023-09-19T17:04:09;1.97;;;1.60;;
52982;SDS011;48698;45.736;13.926;2023-09-19T17:09:12;3.60;;;1.15;;
52982;SDS011;48698;45.736;13.926;2023-09-19T17:14:16;2.10;;;1.30;;
52982;SDS011;48698;45.736;13.926;2023-09-19T17:19:20;4.88;;;1.05;;
52982;SDS011;48698;45.736;13.926;2023-09-19T17:24:25;3.88;;;1.45;;
52982;SDS011;48698;45.736;13.926;2023-09-19T17:29:27;1.35;;;1.00;;
52982;SDS011;48698;45.736;13.926;2023-09-19T17:34:30;1.17;;;1.00;;
52982;SDS011;48698;45.736;13.926;2023-09-19T17:39:33;3.00;;;1.17;;
52982;SDS011;48698;45.736;13.926;2023-09-19T17:44:36;1.73;;;1.10;;
52982;SDS011;48698;45.736;13.926;2023-09-19T17:49:40;1.33;;;1.23;;
52982;SDS011;48698;45.736;13.926;2023-09-19T17:54:44;5.22;;;1.30;;
52982;SDS011;48698;45.736;13.926;2023-09-19T17:59:47;2.08;;;1.35;;
52982;SDS011;48698;45.736;13.926;2023-09-19T18:04:50;2.75;;;1.55;;
52982;SDS011;48698;45.736;13.926;2023-09-19T18:09:55;1.25;;;1.08;;
52982;SDS011;48698;45.736;13.926;2023-09-19T18:15:01;2.05;;;1.15;;
52982;SDS011;48698;45.736;13.926;2023-09-19T18:20:04;2.65;;;1.38;;
52982;SDS011;48698;45.736;13.926;2023-09-19T18:25:07;1.00;;;0.90;;
52982;SDS011;48698;45.736;13.926;2023-09-19T18:30:10;1.90;;;1.30;;
52982;SDS011;48698;45.736;13.926;2023-09-19T18:35:13;3.00;;;1.17;;
52982;SDS011;48698;45.736;13.926;2023-09-19T18:40:17;2.05;;;1.45;;
52982;SDS011;48698;45.736;13.926;2023-09-19T18:45:20;1.57;;;1.33;;
52982;SDS011;48698;45.736;13.926;2023-09-19T18:50:39;2.67;;;1.20;;
52982;SDS011;48698;45.736;13.926;2023-09-19T18:55:44;1.23;;;1.00;;
52982;SDS011;48698;45.736;13.926;2023-09-19T19:00:48;2.55;;;1.63;;
52982;SDS011;48698;45.736;13.926;2023-09-19T19:05:53;2.15;;;1.27;;
52982;SDS011;48698;45.736;13.926;2023-09-19T19:10:56;1.37;;;0.90;;
52982;SDS011;48698;45.736;13.926;2023-09-19T19:16:00;1.10;;;0.90;;
52982;SDS011;48698;45.736;13.926;2023-09-19T19:21:03;2.15;;;1.25;;
52982;SDS011;48698;45.736;13.926;2023-09-19T19:26:10;1.50;;;1.23;;
52982;SDS011;48698;45.736;13.926;2023-09-19T19:31:14;2.33;;;1.17;;
52982;SDS011;48698;45.736;13.926;2023-09-19T19:36:16;1.50;;;1.33;;
52982;SDS011;48698;45.736;13.926;2023-09-19T19:41:19;1.40;;;1.08;;
52982;SDS011;48698;45.736;13.926;2023-09-19T19:46:23;1.70;;;1.23;;
52982;SDS011;48698;45.736;13.926;2023-09-19T19:56:31;2.47;;;1.10;;
52982;SDS011;48698;45.736;13.926;2023-09-19T20:01:36;2.17;;;1.55;;
52982;SDS011;48698;45.736;13.926;2023-09-19T20:06:39;2.28;;;1.27;;
52982;SDS011;48698;45.736;13.926;2023-09-19T20:11:44;1.42;;;1.20;;
52982;SDS011;48698;45.736;13.926;2023-09-19T20:16:47;4.13;;;1.43;;
52982;SDS011;48698;45.736;13.926;2023-09-19T20:21:50;3.50;;;1.48;;
52982;SDS011;48698;45.736;13.926;2023-09-19T20:26:53;2.40;;;1.35;;
52982;SDS011;48698;45.736;13.926;2023-09-19T20:31:59;2.00;;;1.20;;
52982;SDS011;48698;45.736;13.926;2023-09-19T20:37:02;4.72;;;1.40;;
52982;SDS011;48698;45.736;13.926;2023-09-19T20:42:05;3.30;;;1.20;;
52982;SDS011;48698;45.736;13.926;2023-09-19T20:47:08;4.57;;;1.75;;
52982;SDS011;48698;45.736;13.926;2023-09-19T20:52:12;1.85;;;1.20;;
52982;SDS011;48698;45.736;13.926;2023-09-19T20:57:15;2.90;;;1.58;;
52982;SDS011;48698;45.736;13.926;2023-09-19T21:02:18;3.28;;;1.27;;
52982;SDS011;48698;45.736;13.926;2023-09-19T21:07:21;1.73;;;1.30;;
52982;SDS011;48698;45.736;13.926;2023-09-19T21:12:26;3.10;;;1.40;;
52982;SDS011;48698;45.736;13.926;2023-09-19T21:17:28;5.47;;;1.25;;
52982;SDS011;48698;45.736;13.926;2023-09-19T21:22:32;1.77;;;1.52;;
52982;SDS011;48698;45.736;13.926;2023-09-19T21:27:34;3.30;;;1.23;;
52982;SDS011;48698;45.736;13.926;2023-09-19T21:32:37;1.77;;;1.30;;
52982;SDS011;48698;45.736;13.926;2023-09-19T21:37:41;5.85;;;1.90;;
52982;SDS011;48698;45.736;13.926;2023-09-19T21:42:44;2.10;;;1.38;;
52982;SDS011;48698;45.736;13.926;2023-09-19T21:47:48;2.75;;;1.58;;
52982;SDS011;48698;45.736;13.926;2023-09-19T21:52:51;3.50;;;1.30;;
52982;SDS011;48698;45.736;13.926;2023-09-19T21:57:56;2.85;;;1.40;;
52982;SDS011;48698;45.736;13.926;2023-09-19T22:03:02;2.20;;;1.20;;
52982;SDS011;48698;45.736;13.926;2023-09-19T22:08:05;4.88;;;2.22;;
52982;SDS011;48698;45.736;13.926;2023-09-19T22:13:10;1.42;;;1.08;;
52982;SDS011;48698;45.736;13.926;2023-09-19T22:18:15;3.63;;;1.58;;
52982;SDS011;48698;45.736;13.926;2023-09-19T22:23:23;2.50;;;1.50;;
52982;SDS011;48698;45.736;13.926;2023-09-19T22:28:35;4.63;;;1.40;;
52982;SDS011;48698;45.736;13.926;2023-09-19T22:33:38;2.42;;;1.40;;
52982;SDS011;48698;45.736;13.926;2023-09-19T22:38:42;2.67;;;1.30;;
52982;SDS011;48698;45.736;13.926;2023-09-19T22:43:47;3.13;;;1.50;;
52982;SDS011;48698;45.736;13.926;2023-09-19T22:48:50;1.45;;;1.25;;
52982;SDS011;48698;45.736;13.926;2023-09-19T22:53:53;2.63;;;1.58;;
52982;SDS011;48698;45.736;13.926;2023-09-19T22:59:02;3.90;;;1.38;;
52982;SDS011;48698;45.736;13.926;2023-09-19T23:04:08;4.47;;;1.45;;
52982;SDS011;48698;45.736;13.926;2023-09-19T23:09:14;2.00;;;1.30;;
52982;SDS011;48698;45.736;13.926;2023-09-19T23:14:23;2.42;;;1.50;;
52982;SDS011;48698;45.736;13.926;2023-09-19T23:19:36;1.73;;;1.33;;
52982;SDS011;48698;45.736;13.926;2023-09-19T23:24:39;2.67;;;1.67;;
52982;SDS011;48698;45.736;13.926;2023-09-19T23:34:47;2.67;;;1.27;;
52982;SDS011;48698;45.736;13.926;2023-09-19T23:40:03;2.35;;;1.55;;
52982;SDS011;48698;45.736;13.926;2023-09-19T23:45:12;3.60;;;1.60;;
52982;SDS011;48698;45.736;13.926;2023-09-19T23:50:16;2.13;;;1.70;;
52982;SDS011;48698;45.736;13.926;2023-09-19T23:55:19;2.53;;;1.37;;
